createdAt,value
2017-07-05T00:00:12.269Z,8.10
2017-07-05T00:01:08.516Z,8.90
2017-07-05T00:02:04.767Z,7.80
2017-07-05T00:03:01.006Z,7.90
2017-07-05T00:03:57.270Z,8.80
2017-07-05T00:04:53.510Z,7.60
2017-07-05T00:05:49.746Z,8.00
2017-07-05T00:06:45.990Z,7.90
2017-07-05T00:07:42.244Z,7.80
2017-07-05T00:08:38.503Z,8.00
2017-07-05T00:09:34.758Z,6.80
2017-07-05T00:10:30.999Z,10.90
2017-07-05T00:11:27.282Z,7.40
2017-07-05T00:12:23.518Z,7.90
2017-07-05T00:13:19.774Z,7.30
2017-07-05T00:14:16.052Z,8.30
2017-07-05T00:15:12.298Z,8.20
2017-07-05T00:16:08.542Z,7.90
2017-07-05T00:17:04.788Z,7.40
2017-07-05T00:18:01.046Z,8.90
2017-07-05T00:18:57.287Z,7.60
2017-07-05T00:19:53.542Z,8.50
2017-07-05T00:20:49.786Z,7.90
2017-07-05T00:21:46.026Z,9.80
2017-07-05T00:22:42.262Z,8.70
2017-07-05T00:23:38.494Z,7.20
2017-07-05T00:24:34.759Z,6.90
2017-07-05T00:25:31.015Z,6.60
2017-07-05T00:26:27.267Z,8.30
2017-07-05T00:27:23.515Z,7.80
2017-07-05T00:28:19.768Z,6.00
2017-07-05T00:29:16.011Z,8.50
2017-07-05T00:30:12.262Z,8.10
2017-07-05T00:31:08.496Z,7.80
2017-07-05T00:32:04.743Z,7.60
2017-07-05T00:33:01.006Z,7.90
2017-07-05T00:33:57.246Z,7.30
2017-07-05T00:34:53.507Z,6.90
2017-07-05T00:35:49.759Z,6.80
2017-07-05T00:36:46.003Z,6.80
2017-07-05T00:37:42.267Z,8.20
2017-07-05T00:38:38.510Z,8.30
2017-07-05T00:39:34.751Z,7.80
2017-07-05T00:40:31.009Z,8.20
2017-07-05T00:41:27.251Z,6.40
2017-07-05T00:42:23.497Z,9.70
2017-07-05T00:43:19.747Z,7.00
2017-07-05T00:44:16.007Z,8.60
2017-07-05T00:45:12.300Z,7.00
2017-07-05T00:46:08.553Z,7.70
2017-07-05T00:47:04.803Z,7.10
2017-07-05T00:48:01.058Z,7.20
2017-07-05T00:48:57.311Z,7.40
2017-07-05T00:49:53.554Z,7.50
2017-07-05T00:50:49.814Z,7.20
2017-07-05T00:51:46.070Z,7.80
2017-07-05T00:52:42.312Z,8.20
2017-07-05T00:53:38.577Z,13.30
2017-07-05T00:54:34.823Z,7.50
2017-07-05T00:55:31.072Z,8.10
2017-07-05T00:56:27.327Z,8.10
2017-07-05T00:57:23.575Z,7.50
2017-07-05T00:58:19.846Z,7.40
2017-07-05T00:59:16.087Z,7.90
2017-07-05T01:00:12.331Z,7.70
2017-07-05T01:01:08.587Z,7.70
2017-07-05T01:02:04.842Z,6.50
2017-07-05T01:03:01.091Z,7.60
2017-07-05T01:03:57.338Z,8.20
2017-07-05T01:04:53.595Z,7.90
2017-07-05T01:05:49.843Z,9.80
2017-07-05T01:06:46.110Z,8.20
2017-07-05T01:07:42.359Z,8.50
2017-07-05T01:08:38.628Z,7.60
2017-07-05T01:09:34.889Z,7.50
2017-07-05T01:10:31.130Z,6.40
2017-07-05T01:11:27.363Z,9.90
2017-07-05T01:12:23.607Z,7.00
2017-07-05T01:13:19.847Z,7.40
2017-07-05T01:14:16.090Z,7.30
2017-07-05T01:15:12.326Z,6.80
2017-07-05T01:16:08.580Z,7.50
2017-07-05T01:17:04.815Z,10.10
2017-07-05T01:18:01.083Z,6.90
2017-07-05T01:18:57.346Z,6.50
2017-07-05T01:19:53.586Z,6.50
2017-07-05T01:20:49.830Z,6.10
2017-07-05T01:21:46.087Z,6.90
2017-07-05T01:22:42.342Z,7.70
2017-07-05T01:23:38.605Z,7.00
2017-07-05T01:24:34.839Z,7.40
2017-07-05T01:25:31.075Z,6.30
2017-07-05T01:26:27.314Z,7.80
2017-07-05T01:27:23.547Z,7.50
2017-07-05T01:28:19.790Z,6.00
2017-07-05T01:29:16.030Z,6.30
2017-07-05T01:30:12.271Z,7.30
2017-07-05T01:31:08.530Z,6.80
2017-07-05T01:32:04.763Z,6.60
2017-07-05T01:33:01.026Z,6.30
2017-07-05T01:33:57.287Z,6.20
2017-07-05T01:34:53.531Z,6.70
2017-07-05T01:35:49.767Z,7.10
2017-07-05T01:36:45.998Z,6.90
2017-07-05T01:37:42.243Z,6.30
2017-07-05T01:38:38.519Z,6.20
2017-07-05T01:39:34.774Z,7.10
2017-07-05T01:40:31.019Z,7.00
2017-07-05T01:41:27.262Z,6.80
2017-07-05T01:42:23.491Z,5.90
2017-07-05T01:43:19.726Z,6.00
2017-07-05T01:44:15.987Z,6.80
2017-07-05T01:45:12.218Z,7.30
2017-07-05T01:46:08.459Z,6.50
2017-07-05T01:47:04.702Z,7.40
2017-07-05T01:48:00.946Z,6.80
2017-07-05T01:48:57.194Z,7.80
2017-07-05T01:49:53.458Z,6.40
2017-07-05T01:50:49.701Z,7.20
2017-07-05T01:51:45.947Z,7.50
2017-07-05T01:52:42.187Z,9.30
2017-07-05T01:53:38.434Z,7.60
2017-07-05T01:54:34.699Z,7.50
2017-07-05T01:55:30.942Z,5.60
2017-07-05T01:56:27.192Z,6.70
2017-07-05T01:57:23.441Z,7.90
2017-07-05T01:58:19.680Z,9.00
2017-07-05T01:59:15.922Z,7.60
2017-07-05T02:00:12.189Z,7.80
2017-07-05T02:01:08.450Z,8.50
2017-07-05T02:02:04.687Z,7.40
2017-07-05T02:03:00.931Z,8.00
2017-07-05T02:03:57.184Z,8.40
2017-07-05T02:04:53.435Z,8.80
2017-07-05T02:05:49.691Z,8.50
2017-07-05T02:06:45.939Z,7.50
2017-07-05T02:07:42.183Z,8.30
2017-07-05T02:08:38.423Z,8.00
2017-07-05T02:09:34.667Z,7.70
2017-07-05T02:10:30.947Z,8.50
2017-07-05T02:11:27.198Z,8.00
2017-07-05T02:12:23.456Z,8.00
2017-07-05T02:13:19.695Z,7.30
2017-07-05T02:14:15.935Z,7.90
2017-07-05T02:15:12.190Z,8.40
2017-07-05T02:16:08.443Z,8.00
2017-07-05T02:17:04.691Z,7.90
2017-07-05T02:18:00.935Z,7.80
2017-07-05T02:18:57.189Z,7.00
2017-07-05T02:19:53.423Z,7.80
2017-07-05T02:20:49.667Z,7.40
2017-07-05T02:21:45.925Z,9.70
2017-07-05T02:22:42.176Z,8.80
2017-07-05T02:23:38.422Z,7.90
2017-07-05T02:24:34.663Z,7.50
2017-07-05T02:25:30.908Z,10.00
2017-07-05T02:26:27.171Z,8.20
2017-07-05T02:27:23.414Z,7.90
2017-07-05T02:28:19.652Z,9.70
2017-07-05T02:29:15.894Z,8.30
2017-07-05T02:30:12.142Z,7.10
2017-07-05T02:31:08.386Z,7.90
2017-07-05T02:32:04.666Z,10.00
2017-07-05T02:33:00.910Z,8.30
2017-07-05T02:33:57.146Z,9.10
2017-07-05T02:34:53.410Z,8.50
2017-07-05T02:35:49.674Z,8.40
2017-07-05T02:36:45.930Z,8.70
2017-07-05T02:37:42.186Z,7.70
2017-07-05T02:38:38.431Z,7.50
2017-07-05T02:39:34.675Z,9.40
2017-07-05T02:40:30.931Z,8.80
2017-07-05T02:41:27.177Z,9.20
2017-07-05T02:42:23.427Z,9.30
2017-07-05T02:43:19.684Z,8.90
2017-07-05T02:44:15.922Z,9.10
2017-07-05T02:45:12.163Z,8.50
2017-07-05T02:46:08.402Z,9.00
2017-07-05T02:47:04.638Z,8.70
2017-07-05T02:48:00.898Z,9.20
2017-07-05T02:48:57.138Z,8.70
2017-07-05T02:49:53.390Z,10.80
2017-07-05T02:50:49.636Z,8.00
2017-07-05T02:51:45.896Z,9.70
2017-07-05T02:52:42.139Z,8.00
2017-07-05T02:53:38.390Z,7.60
2017-07-05T02:54:34.622Z,7.70
2017-07-05T02:55:30.852Z,10.20
2017-07-05T02:56:27.095Z,8.80
2017-07-05T02:57:23.331Z,8.30
2017-07-05T02:58:19.579Z,8.40
2017-07-05T02:59:15.814Z,8.00
2017-07-05T03:00:12.055Z,8.30
2017-07-05T03:01:08.286Z,9.30
2017-07-05T03:02:04.535Z,8.40
2017-07-05T03:03:00.772Z,9.00
2017-07-05T03:03:57.027Z,9.80
2017-07-05T03:04:53.270Z,8.50
2017-07-05T03:05:49.510Z,9.30
2017-07-05T03:06:45.754Z,8.80
2017-07-05T03:07:41.999Z,9.00
2017-07-05T03:08:38.254Z,8.70
2017-07-05T03:09:34.491Z,8.90
2017-07-05T03:10:30.723Z,8.80
2017-07-05T03:11:26.951Z,8.30
2017-07-05T03:12:23.191Z,9.40
2017-07-05T03:13:19.434Z,8.50
2017-07-05T03:14:15.687Z,9.50
2017-07-05T03:15:11.926Z,8.60
2017-07-05T03:16:08.164Z,9.00
2017-07-05T03:17:04.406Z,8.90
2017-07-05T03:18:00.630Z,12.70
2017-07-05T03:18:56.860Z,8.80
2017-07-05T03:19:53.112Z,10.20
2017-07-05T03:20:49.354Z,9.40
2017-07-05T03:21:45.578Z,7.80
2017-07-05T03:22:41.814Z,9.20
2017-07-05T03:23:38.046Z,8.30
2017-07-05T03:24:34.307Z,12.10
2017-07-05T03:25:30.556Z,9.10
2017-07-05T03:26:26.799Z,8.90
2017-07-05T03:27:23.047Z,8.50
2017-07-05T03:28:19.286Z,8.70
2017-07-05T03:29:15.526Z,8.60
2017-07-05T03:30:11.776Z,8.80
2017-07-05T03:31:08.018Z,9.40
2017-07-05T03:32:04.255Z,8.30
2017-07-05T03:33:00.510Z,8.30
2017-07-05T03:33:56.739Z,8.80
2017-07-05T03:34:52.994Z,9.70
2017-07-05T03:35:49.254Z,8.30
2017-07-05T03:36:45.490Z,9.30
2017-07-05T03:37:41.730Z,7.90
2017-07-05T03:38:37.959Z,9.60
2017-07-05T03:39:34.186Z,12.10
2017-07-05T03:40:30.437Z,9.50
2017-07-05T03:41:26.677Z,10.00
2017-07-05T03:42:22.910Z,9.30
2017-07-05T03:43:19.167Z,9.40
2017-07-05T03:44:15.398Z,9.50
2017-07-05T03:45:11.666Z,10.40
2017-07-05T03:46:07.906Z,9.40
2017-07-05T03:47:04.146Z,9.20
2017-07-05T03:48:00.386Z,10.10
2017-07-05T03:48:56.631Z,8.90
2017-07-05T03:49:52.863Z,9.40
2017-07-05T03:50:49.120Z,9.50
2017-07-05T03:51:45.363Z,10.00
2017-07-05T03:52:41.611Z,9.30
2017-07-05T03:53:37.859Z,9.20
2017-07-05T03:54:34.093Z,10.20
2017-07-05T03:55:30.330Z,10.00
2017-07-05T03:56:26.583Z,9.30
2017-07-05T03:57:22.868Z,8.70
2017-07-05T03:58:19.114Z,9.60
2017-07-05T03:59:15.338Z,8.60
2017-07-05T04:00:11.583Z,9.30
2017-07-05T04:01:07.843Z,8.50
2017-07-05T04:02:04.095Z,8.30
2017-07-05T04:03:00.342Z,8.80
2017-07-05T04:03:56.604Z,9.00
2017-07-05T04:04:52.859Z,8.10
2017-07-05T04:05:49.098Z,8.70
2017-07-05T04:06:45.355Z,9.00
2017-07-05T04:07:41.595Z,9.60
2017-07-05T04:08:37.826Z,8.80
2017-07-05T04:09:34.070Z,9.40
2017-07-05T04:10:30.311Z,9.70
2017-07-05T04:11:26.570Z,9.20
2017-07-05T04:12:22.794Z,8.70
2017-07-05T04:13:19.803Z,8.70
2017-07-05T04:14:16.046Z,8.80
2017-07-05T04:15:12.294Z,9.30
2017-07-05T04:16:08.535Z,8.30
2017-07-05T04:17:04.790Z,9.20
2017-07-05T04:18:01.031Z,9.00
2017-07-05T04:18:57.278Z,8.60
2017-07-05T04:19:53.511Z,11.50
2017-07-05T04:20:49.750Z,8.70
2017-07-05T04:21:46.003Z,10.60
2017-07-05T04:22:42.241Z,8.50
2017-07-05T04:23:38.486Z,9.10
2017-07-05T04:24:34.730Z,9.80
2017-07-05T04:25:30.966Z,9.30
2017-07-05T04:26:27.275Z,9.30
2017-07-05T04:27:23.578Z,8.50
2017-07-05T04:28:19.858Z,11.10
2017-07-05T04:29:16.143Z,12.30
2017-07-05T04:30:12.433Z,10.70
2017-07-05T04:31:08.662Z,15.40
2017-07-05T04:32:04.933Z,19.30
2017-07-05T04:33:01.173Z,16.30
2017-07-05T04:33:57.407Z,22.60
2017-07-05T04:34:53.646Z,23.30
2017-07-05T04:35:49.878Z,26.20
2017-07-05T04:36:46.114Z,22.30
2017-07-05T04:37:42.378Z,13.10
2017-07-05T04:38:38.611Z,23.50
2017-07-05T04:39:34.848Z,27.00
2017-07-05T04:40:31.095Z,26.20
2017-07-05T04:41:27.330Z,17.40
2017-07-05T04:42:23.569Z,15.70
2017-07-05T04:43:19.809Z,14.80
2017-07-05T04:44:16.047Z,14.10
2017-07-05T04:45:12.286Z,15.20
2017-07-05T04:46:08.526Z,17.30
2017-07-05T04:47:04.767Z,12.80
2017-07-05T04:48:01.019Z,16.10
2017-07-05T04:48:57.258Z,12.10
2017-07-05T04:49:53.499Z,16.40
2017-07-05T04:50:49.747Z,16.40
2017-07-05T04:51:45.984Z,14.30
2017-07-05T04:52:42.230Z,14.50
2017-07-05T04:53:38.478Z,14.60
2017-07-05T04:54:34.710Z,15.40
2017-07-05T04:55:30.950Z,16.30
2017-07-05T04:56:27.179Z,15.60
2017-07-05T04:57:23.411Z,14.40
2017-07-05T04:58:19.679Z,15.90
2017-07-05T04:59:15.911Z,15.20
2017-07-05T05:00:12.153Z,14.20
2017-07-05T05:01:08.398Z,15.50
2017-07-05T05:02:04.634Z,13.80
2017-07-05T05:03:00.877Z,16.30
2017-07-05T05:03:57.127Z,14.60
2017-07-05T05:04:53.370Z,15.30
2017-07-05T05:05:49.607Z,17.20
2017-07-05T05:06:45.845Z,14.50
2017-07-05T05:07:42.078Z,15.70
2017-07-05T05:08:38.343Z,13.40
2017-07-05T05:09:34.633Z,14.00
2017-07-05T05:10:30.882Z,14.90
2017-07-05T05:11:27.125Z,14.00
2017-07-05T05:12:23.362Z,14.50
2017-07-05T05:13:19.611Z,13.30
2017-07-05T05:14:15.879Z,13.80
2017-07-05T05:15:12.130Z,14.40
2017-07-05T05:16:08.367Z,13.30
2017-07-05T05:17:04.608Z,14.60
2017-07-05T05:18:00.846Z,14.10
2017-07-05T05:18:57.069Z,12.40
2017-07-05T05:19:53.322Z,13.60
2017-07-05T05:20:49.558Z,12.70
2017-07-05T05:21:45.799Z,12.60
2017-07-05T05:22:42.034Z,12.80
2017-07-05T05:23:38.259Z,13.10
2017-07-05T05:24:34.511Z,13.60
2017-07-05T05:25:30.743Z,13.90
2017-07-05T05:26:26.987Z,12.70
2017-07-05T05:27:23.226Z,13.30
2017-07-05T05:28:19.465Z,13.70
2017-07-05T05:29:15.707Z,13.80
2017-07-05T05:30:11.959Z,12.80
2017-07-05T05:31:08.202Z,13.30
2017-07-05T05:32:04.444Z,13.60
2017-07-05T05:33:00.714Z,14.10
2017-07-05T05:33:56.946Z,14.40
2017-07-05T05:34:53.210Z,15.20
2017-07-05T05:35:49.442Z,14.30
2017-07-05T05:36:45.690Z,12.60
2017-07-05T05:37:41.939Z,14.60
2017-07-05T05:38:38.175Z,14.30
2017-07-05T05:39:34.418Z,14.60
2017-07-05T05:40:30.675Z,14.00
2017-07-05T05:41:26.907Z,13.60
2017-07-05T05:42:23.163Z,11.90
2017-07-05T05:43:19.397Z,14.00
2017-07-05T05:44:15.635Z,14.00
2017-07-05T05:45:11.878Z,14.00
2017-07-05T05:46:08.130Z,12.70
2017-07-05T05:47:04.362Z,14.90
2017-07-05T05:48:00.595Z,14.60
2017-07-05T05:48:56.831Z,13.70
2017-07-05T05:49:53.068Z,13.00
2017-07-05T05:50:49.319Z,14.70
2017-07-05T05:51:45.579Z,14.30
2017-07-05T05:52:41.844Z,14.90
2017-07-05T05:53:38.086Z,13.80
2017-07-05T05:54:34.318Z,14.90
2017-07-05T05:55:30.580Z,12.90
2017-07-05T05:56:26.831Z,14.00
2017-07-05T05:57:23.095Z,13.30
2017-07-05T05:58:19.342Z,13.30
2017-07-05T05:59:15.582Z,12.00
2017-07-05T06:00:11.818Z,16.90
2017-07-05T06:01:08.095Z,14.00
2017-07-05T06:02:04.355Z,13.90
2017-07-05T06:03:00.605Z,13.30
2017-07-05T06:03:56.831Z,12.80
2017-07-05T06:04:53.080Z,13.40
2017-07-05T06:05:49.323Z,14.00
2017-07-05T06:06:45.558Z,12.90
2017-07-05T06:07:41.810Z,13.40
2017-07-05T06:08:38.055Z,14.60
2017-07-05T06:09:34.296Z,14.80
2017-07-05T06:10:30.535Z,13.20
2017-07-05T06:11:26.782Z,14.00
2017-07-05T06:12:23.096Z,15.10
2017-07-05T06:13:19.606Z,18.00
2017-07-05T06:14:15.855Z,15.00
2017-07-05T06:15:12.095Z,13.00
2017-07-05T06:16:08.335Z,14.00
2017-07-05T06:17:04.612Z,15.60
2017-07-05T06:18:00.870Z,14.80
2017-07-05T06:18:57.099Z,14.80
2017-07-05T06:19:53.342Z,13.90
2017-07-05T06:20:49.582Z,17.50
2017-07-05T06:21:45.819Z,15.90
2017-07-05T06:22:42.058Z,16.80
2017-07-05T06:23:38.286Z,16.00
2017-07-05T06:24:34.530Z,14.70
2017-07-05T06:25:30.770Z,17.20
2017-07-05T06:26:27.011Z,14.30
2017-07-05T06:27:23.251Z,15.10
2017-07-05T06:28:19.490Z,15.40
2017-07-05T06:29:15.721Z,13.90
2017-07-05T06:30:11.946Z,15.60
2017-07-05T06:31:08.187Z,15.90
2017-07-05T06:32:04.431Z,14.80
2017-07-05T06:33:00.719Z,16.00
2017-07-05T06:33:56.958Z,15.90
2017-07-05T06:34:53.234Z,13.80
2017-07-05T06:35:49.477Z,13.70
2017-07-05T06:36:45.718Z,14.20
2017-07-05T06:37:41.975Z,14.80
2017-07-05T06:38:38.232Z,13.40
2017-07-05T06:39:34.471Z,17.00
2017-07-05T06:40:30.710Z,15.20
2017-07-05T06:41:26.945Z,14.50
2017-07-05T06:42:23.200Z,15.30
2017-07-05T06:43:19.442Z,18.60
2017-07-05T06:44:15.674Z,15.50
2017-07-05T06:45:11.907Z,13.70
2017-07-05T06:46:08.152Z,12.80
2017-07-05T06:47:04.397Z,13.50
2017-07-05T06:48:00.638Z,12.90
2017-07-05T06:48:56.910Z,13.30
2017-07-05T06:49:53.154Z,13.40
2017-07-05T06:50:49.402Z,12.10
2017-07-05T06:51:45.645Z,11.60
2017-07-05T06:52:41.886Z,14.20
2017-07-05T06:53:38.147Z,13.00
2017-07-05T06:54:34.391Z,13.10
2017-07-05T06:55:30.646Z,15.10
2017-07-05T06:56:26.903Z,13.50
2017-07-05T06:57:23.146Z,12.40
2017-07-05T06:58:19.394Z,11.70
2017-07-05T06:59:15.653Z,12.50
2017-07-05T07:00:11.907Z,13.60
2017-07-05T07:01:08.150Z,13.00
2017-07-05T07:02:04.386Z,12.70
2017-07-05T07:03:00.630Z,12.20
2017-07-05T07:03:56.877Z,12.90
2017-07-05T07:04:53.147Z,13.00
2017-07-05T07:05:49.383Z,11.30
2017-07-05T07:06:45.638Z,12.20
2017-07-05T07:07:41.887Z,12.60
2017-07-05T07:08:38.138Z,11.00
2017-07-05T07:09:34.383Z,11.70
2017-07-05T07:10:30.614Z,12.80
2017-07-05T07:11:26.851Z,12.70
2017-07-05T07:12:23.090Z,12.50
2017-07-05T07:13:19.348Z,12.70
2017-07-05T07:14:15.606Z,12.00
2017-07-05T07:15:11.868Z,10.80
2017-07-05T07:16:08.098Z,15.60
2017-07-05T07:17:04.342Z,12.40
2017-07-05T07:18:00.597Z,12.90
2017-07-05T07:18:56.843Z,12.60
2017-07-05T07:19:53.127Z,12.70
2017-07-05T07:20:49.419Z,14.20
2017-07-05T07:21:45.666Z,14.00
2017-07-05T07:22:41.909Z,11.70
2017-07-05T07:23:38.150Z,12.20
2017-07-05T07:24:34.396Z,13.30
2017-07-05T07:25:30.655Z,11.90
2017-07-05T07:26:26.956Z,12.90
2017-07-05T07:27:23.200Z,14.10
2017-07-05T07:28:19.451Z,13.10
2017-07-05T07:29:15.707Z,13.00
2017-07-05T07:30:11.963Z,13.80
2017-07-05T07:31:08.239Z,14.00
2017-07-05T07:32:04.466Z,13.20
2017-07-05T07:33:00.716Z,12.40
2017-07-05T07:33:56.972Z,17.70
2017-07-05T07:34:53.221Z,12.10
2017-07-05T07:35:49.483Z,13.40
2017-07-05T07:36:45.727Z,12.90
2017-07-05T07:37:41.971Z,13.80
2017-07-05T07:38:38.229Z,11.70
2017-07-05T07:39:34.475Z,11.80
2017-07-05T07:40:30.723Z,13.10
2017-07-05T07:41:26.986Z,10.50
2017-07-05T07:42:23.237Z,12.00
2017-07-05T07:43:19.486Z,12.30
2017-07-05T07:44:15.732Z,10.00
2017-07-05T07:45:11.991Z,10.00
2017-07-05T07:46:08.259Z,11.60
2017-07-05T07:47:04.503Z,9.00
2017-07-05T07:48:00.747Z,9.20
2017-07-05T07:48:57.014Z,8.40
2017-07-05T07:49:53.254Z,9.20
2017-07-05T07:50:49.499Z,10.80
2017-07-05T07:51:45.778Z,8.80
2017-07-05T07:52:42.014Z,7.20
2017-07-05T07:53:38.264Z,10.00
2017-07-05T07:54:34.502Z,8.30
2017-07-05T07:55:30.742Z,9.30
2017-07-05T07:56:27.002Z,9.70
2017-07-05T07:57:23.268Z,7.90
2017-07-05T07:58:19.518Z,8.40
2017-07-05T07:59:15.757Z,10.10
2017-07-05T08:00:12.058Z,7.30
2017-07-05T08:01:08.314Z,7.40
2017-07-05T08:02:04.573Z,8.80
2017-07-05T08:03:00.818Z,8.40
2017-07-05T08:03:57.067Z,8.60
2017-07-05T08:04:53.310Z,10.00
2017-07-05T08:05:49.554Z,8.90
2017-07-05T08:06:45.816Z,8.10
2017-07-05T08:07:42.107Z,8.00
2017-07-05T08:08:38.360Z,9.30
2017-07-05T08:09:34.597Z,9.30
2017-07-05T08:10:30.827Z,7.90
2017-07-05T08:11:27.066Z,6.60
2017-07-05T08:12:23.311Z,12.70
2017-07-05T08:13:19.574Z,9.60
2017-07-05T08:14:15.823Z,6.00
2017-07-05T08:15:12.061Z,7.90
2017-07-05T08:16:08.302Z,8.20
2017-07-05T08:17:04.555Z,8.10
2017-07-05T08:18:00.823Z,6.30
2017-07-05T08:18:57.070Z,6.90
2017-07-05T08:19:54.211Z,7.00
2017-07-05T08:20:50.462Z,8.60
2017-07-05T08:21:46.715Z,7.30
2017-07-05T08:22:42.961Z,7.40
2017-07-05T08:23:39.222Z,6.40
2017-07-05T08:24:35.466Z,7.20
2017-07-05T08:25:31.708Z,6.70
2017-07-05T08:26:27.958Z,5.60
2017-07-05T08:27:24.214Z,7.40
2017-07-05T08:28:20.474Z,10.90
2017-07-05T08:29:16.714Z,6.20
2017-07-05T08:30:12.967Z,6.60
2017-07-05T08:31:09.224Z,7.50
2017-07-05T08:32:05.478Z,6.90
2017-07-05T08:33:01.723Z,6.60
2017-07-05T08:33:57.990Z,6.50
2017-07-05T08:34:54.243Z,6.50
2017-07-05T08:35:50.487Z,5.90
2017-07-05T08:36:46.726Z,11.20
2017-07-05T08:37:42.962Z,5.90
2017-07-05T08:38:39.215Z,6.60
2017-07-05T08:39:35.555Z,6.80
2017-07-05T08:40:31.808Z,5.50
2017-07-05T08:41:28.072Z,6.80
2017-07-05T08:42:24.315Z,6.10
2017-07-05T08:43:20.573Z,6.30
2017-07-05T08:44:16.811Z,5.50
2017-07-05T08:45:13.092Z,9.00
2017-07-05T08:46:09.343Z,5.70
2017-07-05T08:47:05.634Z,6.70
2017-07-05T08:48:01.874Z,9.90
2017-07-05T08:48:58.099Z,6.40
2017-07-05T08:49:54.366Z,7.50
2017-07-05T08:50:50.611Z,6.70
2017-07-05T08:51:46.871Z,7.00
2017-07-05T08:52:43.119Z,7.50
2017-07-05T08:53:39.363Z,7.40
2017-07-05T08:54:35.606Z,5.90
2017-07-05T08:55:31.884Z,6.70
2017-07-05T08:56:28.130Z,7.30
2017-07-05T08:57:24.370Z,7.40
2017-07-05T08:58:20.606Z,7.20
2017-07-05T08:59:16.855Z,7.70
2017-07-05T09:00:13.105Z,7.90
2017-07-05T09:01:09.363Z,7.80
2017-07-05T09:02:05.612Z,7.70
2017-07-05T09:03:01.875Z,7.10
2017-07-05T09:03:58.118Z,7.00
2017-07-05T09:04:54.355Z,6.70
2017-07-05T09:05:50.593Z,9.20
2017-07-05T09:06:46.847Z,6.60
2017-07-05T09:07:43.090Z,9.60
2017-07-05T09:08:39.332Z,6.90
2017-07-05T09:09:35.587Z,6.60
2017-07-05T09:10:31.847Z,8.20
2017-07-05T09:11:28.103Z,7.10
2017-07-05T09:12:24.371Z,7.20
2017-07-05T09:13:20.610Z,7.60
2017-07-05T09:14:16.860Z,6.20
2017-07-05T09:15:13.099Z,6.30
2017-07-05T09:16:09.338Z,6.20
2017-07-05T09:17:05.598Z,6.30
2017-07-05T09:18:01.842Z,6.10
2017-07-05T09:18:58.095Z,6.10
2017-07-05T09:19:54.335Z,7.10
2017-07-05T09:20:50.575Z,6.40
2017-07-05T09:21:46.836Z,5.70
2017-07-05T09:22:43.107Z,5.50
2017-07-05T09:23:39.354Z,5.50
2017-07-05T09:24:35.609Z,5.80
2017-07-05T09:25:31.859Z,4.70
2017-07-05T09:26:28.094Z,5.40
2017-07-05T09:27:24.342Z,9.70
2017-07-05T09:28:20.651Z,5.50
2017-07-05T09:29:16.896Z,5.50
2017-07-05T09:30:13.148Z,5.20
2017-07-05T09:31:09.383Z,6.00
2017-07-05T09:32:05.647Z,5.30
2017-07-05T09:33:01.927Z,5.90
2017-07-05T09:33:58.189Z,5.10
2017-07-05T09:34:54.451Z,7.50
2017-07-05T09:35:50.702Z,5.60
2017-07-05T09:36:46.947Z,5.20
2017-07-05T09:37:43.203Z,5.60
2017-07-05T09:38:39.465Z,5.00
2017-07-05T09:39:35.719Z,6.20
2017-07-05T09:40:31.976Z,5.50
2017-07-05T09:41:28.219Z,5.40
2017-07-05T09:42:24.615Z,4.70
2017-07-05T09:43:20.874Z,6.70
2017-07-05T09:44:17.122Z,8.00
2017-07-05T09:45:13.371Z,5.70
2017-07-05T09:46:09.611Z,4.50
2017-07-05T09:47:05.861Z,7.00
2017-07-05T09:48:02.099Z,4.60
2017-07-05T09:48:58.376Z,5.00
2017-07-05T09:49:54.627Z,5.00
2017-07-05T09:50:50.883Z,6.00
2017-07-05T09:51:47.127Z,4.90
2017-07-05T09:52:43.387Z,5.10
2017-07-05T09:53:39.679Z,7.10
2017-07-05T09:54:35.927Z,5.70
2017-07-05T09:55:32.166Z,5.00
2017-07-05T09:56:28.411Z,4.70
2017-07-05T09:57:24.658Z,5.00
2017-07-05T09:58:20.919Z,4.90
2017-07-05T09:59:17.190Z,4.80
2017-07-05T10:00:13.459Z,4.80
2017-07-05T10:01:09.730Z,4.10
2017-07-05T10:02:05.975Z,6.20
2017-07-05T10:03:02.219Z,5.10
2017-07-05T10:03:58.490Z,5.30
2017-07-05T10:04:54.746Z,5.70
2017-07-05T10:05:50.994Z,4.70
2017-07-05T10:06:47.251Z,4.70
2017-07-05T10:07:43.500Z,4.50
2017-07-05T10:08:39.783Z,4.30
2017-07-05T10:09:36.047Z,6.10
2017-07-05T10:10:32.311Z,5.70
2017-07-05T10:11:28.579Z,4.90
2017-07-05T10:12:24.850Z,5.60
2017-07-05T10:13:21.114Z,4.60
2017-07-05T10:14:17.367Z,5.30
2017-07-05T10:15:13.648Z,4.60
2017-07-05T10:16:09.904Z,4.90
2017-07-05T10:17:06.156Z,4.90
2017-07-05T10:18:02.408Z,4.60
2017-07-05T10:18:58.695Z,4.00
2017-07-05T10:19:54.967Z,4.20
2017-07-05T10:20:51.204Z,3.80
2017-07-05T10:21:47.442Z,5.70
2017-07-05T10:22:43.709Z,3.80
2017-07-05T10:23:39.958Z,5.80
2017-07-05T10:24:36.203Z,3.40
2017-07-05T10:25:32.490Z,3.70
2017-07-05T10:26:28.738Z,3.60
2017-07-05T10:27:24.996Z,3.70
2017-07-05T10:28:21.255Z,2.90
2017-07-05T10:29:17.495Z,3.20
2017-07-05T10:30:13.751Z,2.90
2017-07-05T10:31:10.030Z,3.40
2017-07-05T10:32:06.295Z,3.10
2017-07-05T10:33:02.566Z,2.70
2017-07-05T10:33:58.810Z,2.80
2017-07-05T10:34:55.060Z,2.50
2017-07-05T10:35:51.342Z,2.50
2017-07-05T10:36:47.600Z,2.60
2017-07-05T10:37:43.840Z,2.60
2017-07-05T10:38:40.083Z,2.50
2017-07-05T10:39:36.347Z,2.30
2017-07-05T10:40:32.602Z,2.70
2017-07-05T10:41:28.851Z,3.60
2017-07-05T10:42:25.201Z,3.90
2017-07-05T10:43:21.450Z,3.00
2017-07-05T10:44:17.695Z,2.60
2017-07-05T10:45:13.935Z,2.60
2017-07-05T10:46:10.178Z,3.40
2017-07-05T10:47:06.438Z,3.00
2017-07-05T10:48:02.682Z,4.40
2017-07-05T10:48:58.935Z,3.40
2017-07-05T10:49:55.188Z,3.70
2017-07-05T10:50:51.438Z,5.00
2017-07-05T10:51:47.711Z,3.20
2017-07-05T10:52:43.958Z,3.40
2017-07-05T10:53:40.198Z,3.50
2017-07-05T10:54:36.436Z,3.60
2017-07-05T10:55:32.700Z,4.00
2017-07-05T10:56:28.951Z,3.20
2017-07-05T10:57:25.244Z,6.40
2017-07-05T10:58:21.497Z,2.80
2017-07-05T10:59:17.742Z,3.20
2017-07-05T11:00:13.986Z,2.90
2017-07-05T11:01:10.231Z,3.00
2017-07-05T11:02:06.463Z,3.40
2017-07-05T11:03:02.723Z,3.40
2017-07-05T11:03:58.975Z,3.30
2017-07-05T11:04:55.214Z,2.80
2017-07-05T11:05:51.458Z,6.20
2017-07-05T11:06:47.703Z,2.90
2017-07-05T11:07:43.995Z,3.50
2017-07-05T11:08:40.239Z,2.90
2017-07-05T11:09:36.475Z,3.40
2017-07-05T11:10:32.711Z,3.00
2017-07-05T11:11:28.953Z,2.80
2017-07-05T11:12:25.190Z,3.00
2017-07-05T11:13:21.470Z,3.20
2017-07-05T11:14:17.707Z,3.40
2017-07-05T11:15:13.955Z,3.40
2017-07-05T11:16:10.194Z,4.60
2017-07-05T11:17:06.435Z,3.20
2017-07-05T11:18:02.694Z,3.80
2017-07-05T11:18:58.971Z,3.40
2017-07-05T11:19:55.211Z,4.00
2017-07-05T11:20:51.458Z,3.30
2017-07-05T11:21:47.703Z,3.30
2017-07-05T11:22:43.946Z,3.60
2017-07-05T11:23:40.205Z,3.10
2017-07-05T11:24:36.455Z,3.40
2017-07-05T11:25:32.698Z,3.00
2017-07-05T11:26:28.930Z,3.20
2017-07-05T11:27:25.168Z,3.20
2017-07-05T11:28:21.406Z,2.80
2017-07-05T11:29:17.683Z,3.10
2017-07-05T11:30:13.916Z,3.10
2017-07-05T11:31:10.162Z,3.10
2017-07-05T11:32:06.410Z,3.20
2017-07-05T11:33:02.648Z,3.60
2017-07-05T11:33:58.909Z,3.60
2017-07-05T11:34:55.162Z,3.60
2017-07-05T11:35:51.407Z,3.50
2017-07-05T11:36:47.662Z,6.80
2017-07-05T11:37:43.907Z,3.70
2017-07-05T11:38:40.156Z,4.20
2017-07-05T11:39:36.418Z,3.60
2017-07-05T11:40:32.663Z,3.40
2017-07-05T11:41:28.896Z,3.50
2017-07-05T11:42:25.134Z,3.30
2017-07-05T11:43:21.371Z,3.40
2017-07-05T11:44:17.618Z,4.20
2017-07-05T11:45:13.867Z,3.90
2017-07-05T11:46:10.106Z,4.00
2017-07-05T11:47:06.338Z,3.70
2017-07-05T11:48:02.598Z,3.70
2017-07-05T11:48:58.842Z,2.90
2017-07-05T11:49:55.119Z,3.30
2017-07-05T11:50:51.370Z,3.40
2017-07-05T11:51:47.619Z,4.20
2017-07-05T11:52:43.860Z,3.80
2017-07-05T11:53:40.098Z,4.30
2017-07-05T11:54:36.346Z,4.90
2017-07-05T11:55:32.609Z,3.80
2017-07-05T11:56:28.854Z,3.50
2017-07-05T11:57:25.094Z,4.20
2017-07-05T11:58:21.343Z,3.80
2017-07-05T11:59:17.585Z,4.50
2017-07-05T12:00:13.850Z,3.90
2017-07-05T12:01:10.131Z,4.70
2017-07-05T12:02:06.395Z,4.00
2017-07-05T12:03:02.664Z,4.40
2017-07-05T12:03:58.911Z,4.50
2017-07-05T12:04:55.155Z,3.30
2017-07-05T12:05:51.415Z,3.40
2017-07-05T12:06:47.664Z,3.50
2017-07-05T12:07:43.909Z,3.20
2017-07-05T12:08:40.146Z,3.30
2017-07-05T12:09:36.383Z,4.40
2017-07-05T12:10:32.632Z,3.80
2017-07-05T12:11:28.884Z,3.70
2017-07-05T12:12:25.128Z,3.40
2017-07-05T12:13:21.359Z,3.60
2017-07-05T12:14:17.587Z,3.90
2017-07-05T12:15:13.831Z,4.40
2017-07-05T12:16:10.095Z,3.80
2017-07-05T12:17:06.353Z,3.80
2017-07-05T12:18:02.594Z,3.30
2017-07-05T12:18:58.827Z,4.00
2017-07-05T12:19:55.072Z,3.30
2017-07-05T12:20:51.318Z,4.00